Terminal Aerodrome Forecast
Issued by NWS Charleston, WV

Home | Current Version | Previous Version | Text Only | Print | Product List | Glossary On
Versions: 1 2 3 4 5 6 7 8 9 10 11 12 13 14 15 16 17 18 19 20 21 22 23 24 25
000
FTUS41 KRLX 050538
TAFHTS
TAF
KHTS 050538Z 0506/0606 31005KT P6SM VCSH SCT080
     FM050900 29006KT 4SM BR SCT050
     FM051300 27004KT P6SM OVC030
     FM051700 30005KT 4SM SHRA BR BKN015=

USA.gov is the U.S. government's official web portal to all federal, state and local government web resources and services.